Lewisville's Hourly Summary for Saturday, March 18, 2017
Hour Temp
(f)
RH
(%)
Solar Rad.
(MJ/m2)
Rainfall
(in)
Wind
(mph)
3/18/2017 12:00 AM 73 64 0 0 5.79
3/18/2017 1:00 AM 71 66 0 0 8.58
3/18/2017 2:00 AM 70 69 0 0 8.16
3/18/2017 3:00 AM 68 74 0 0 8.77
3/18/2017 4:00 AM 67 80 0 0 6.09
3/18/2017 5:00 AM 66 85 0 0 4.92
3/18/2017 6:00 AM 65 88 0 0 4.29
3/18/2017 7:00 AM 64 90 0 0 4.96
3/18/2017 8:00 AM 65 89 0.01 0 6.89
3/18/2017 9:00 AM 65 88 0.12 0 6.45
3/18/2017 10:00 AM 66 84 0.4 0 6.33
3/18/2017 11:00 AM 69 73 1.44 0 3.38
3/18/2017 12:00 PM 73 64 2.36 0 3.78
3/18/2017 1:00 PM 76 60 2.7 0 3.55
3/18/2017 2:00 PM 77 57 2.75 0 4.24
3/18/2017 3:00 PM 80 52 2.51 0 4.67
3/18/2017 4:00 PM 81 49 2.08 0 6.35
3/18/2017 5:00 PM 82 48 1.7 0 7.61
3/18/2017 6:00 PM 81 46 0.94 0 7.59
3/18/2017 7:00 PM 80 49 0.5 0 8.3
3/18/2017 8:00 PM 78 53 0.05 0 7.92
3/18/2017 9:00 PM 75 59 0 0 7.09
3/18/2017 10:00 PM 74 61 0 0 5.53
3/18/2017 11:00 PM 72 64 0 0 4.3
Data Summary 72 67 17.56 0.00 6.06